Benalla, Australia
Current Conditions -  °F | °C
As of 7:00 AM on Saturday 22 Nov 2014 (Local Time) from YMAY Reporting Station
Clear Clear  
Wind Chill: 59°   Ceiling: Unl
Heat Index: 59°   Visibility: 6mi
Dew Point: 48°   Wind: 1mph
Humidity: 67%   Direction: 100°E
Pressure: 29.91"   Gusts: NA
Location:  36.55°S, 145.99°E
Report Text: YMAY 212000Z AUTO 10001KT 9999 // NCD 15/09 Q1013
Loading
Personal Weather Stations






























Interactive Weather Map New forecast layout! Learn more

10-Day Weather Forecast

Advertisements
Track Severe Weather on mobile